Pilgrim, New York
Current Conditions -  °F | °C
As of 8:51 AM on Saturday 25 Oct 2014 (Local Time) from KLGA Reporting Station
Few Clouds Few Clouds  
Wind Chill: 54°   Ceiling: Unl
Heat Index: 54°   Visibility: 10mi
Dew Point: 37°   Wind: 13mph
Humidity: 53%   Direction: 280°W
Pressure: 29.85"   Gusts: NA
Location:  40.8469°N, 73.8398°W
Report Text: KLGA 251251Z 28011KT 10SM FEW250 12/03 A2985 RMK AO2 SLP109 T01220028
Loading
Personal Weather Stations






























Interactive Weather Map
Tropical Storm Tracking
New forecast layout! Learn more

10-Day Weather Forecast

Advertisements
Track Severe Weather on mobile